Aeroporto :
LOGIN :

Iscrizione | Disclaimer

   EN    FR    IT 

 










Sommario :    VFR   VFR Marginale   IFR   IFR Intensivo   IFR Molto Intensivo
Visibilità : 
Base nubi : 
>= 8 km
>= 3000ft
5 / 8 km
1000 / 3000 ft
1500m / 5 km
500 / 1000 ft
800 / 1500m
200 / 500 ft
< 800m
< 200 ft
Simboli :   Temporali  Nebbia  Neve Forte  Precipitazioni Forti  Vento > 20 kt
SIGMETs :   Varie  Temporali  Ghiacco  Turbolenza  Onda orograficha  Ceneri Vulcaniche






- Altitudine del aeroporto : 600 ft
- Codice IATA : VIE


LOWW - Vienna Schwechat

ULTIMO METAR :
  • 311520Z 30007KT 9999 BKN030 15/09 Q1023 NOSIG

METARs OBSOLETI :
  • 311450Z 33007KT 9999 BKN032 15/09 Q1023 NOSIG
  • 311420Z 32009KT 9999 BKN031 16/09 Q1023 NOSIG
  • 311350Z 32010KT 9999 SCT032 16/09 Q1022 NOSIG
  • 311320Z 30011KT 9999 FEW037 16/09 Q1022 NOSIG
  • 311250Z 32012KT 9999 FEW037 16/09 Q1022 NOSIG

TAF TAF LOWW
Valido dal 31 a 15 ore il 01 a 21 ore UTC


311415Z 3115/0121 32010KT 9999 SCT030 TX15/3115Z TN08/0105Z
BECMG 3117/3119 VRB03KT
BECMG 3120/3122 2500 BCFG
TEMPO 0100/0107 15007KT 1200 BKN002
BECMG 0108/0110 9999 BKN006
BECMG 0110/0112 CAVOK
TEMPO 0115/0121 -RA



MetMap, La meteo Aeronautica in un colpo d'occhio ! - Copyright ORBIFLY Dicembre 2007 - Disclaimer

ORBIFLY MET'MAP TEAM :

Programmazione e sviluppo : Alexandra Zaïnal
Concezione : Baudouin d'Aumeries
Aiuto per la programmazione : Marc-Olivier Méhu
Supporto tecnico e logistico : Manuel Goepfert
Aiuto per la traduzione : Arnaldo La Scala

Contatto : metmap@orbifly.com




FONTI E CREDITI :

   NOAA